Time;durP1;ratioP1;P1;durP2;ratioP2;P2;SDS_P1;SDS_P2;PMS_P1;PMS_P2;Temp;Humidity;BMP_temperature;BMP_pressure;BME280_temperature;BME280_humidity;BME280_pressure;Samples;Min_cycle;Max_cycle;Signal;HPM_P1;HPM_P2
2022/02/22 00:01:35;;;;;;;22.97;4.03;;;7.00;1.00;;;;;;5018923;28;20249;-56
2022/02/22 00:04:02;;;;;;;23.23;3.60;;;6.90;1.00;;;;;;5020554;28;20935;-57
2022/02/22 00:06:29;;;;;;;24.50;4.40;;;6.90;1.00;;;;;;5020431;28;20242;-57
2022/02/22 00:08:56;;;;;;;15.23;3.07;;;6.90;1.00;;;;;;5022868;28;20239;-57
2022/02/22 00:11:23;;;;;;;15.77;3.27;;;6.90;1.00;;;;;;5039511;28;20283;-57
2022/02/22 00:13:50;;;;;;;16.27;4.27;;;6.90;1.00;;;;;;5023083;28;20704;-57
2022/02/22 00:16:17;;;;;;;23.50;3.83;;;6.90;1.00;;;;;;5023651;28;20299;-58
2022/02/22 00:18:44;;;;;;;29.97;4.00;;;6.90;1.00;;;;;;5021072;28;20270;-58
2022/02/22 00:21:12;;;;;;;15.37;3.50;;;6.90;1.00;;;;;;5019131;28;20611;-59
2022/02/22 00:23:39;;;;;;;16.27;3.27;;;6.90;1.00;;;;;;5023222;28;20240;-58
2022/02/22 00:26:06;;;;;;;23.77;3.40;;;6.90;1.00;;;;;;5021782;28;20287;-58
2022/02/22 00:28:33;;;;;;;18.50;3.13;;;6.90;1.00;;;;;;5022678;28;20252;-58
2022/02/22 00:31:00;;;;;;;19.20;3.43;;;6.90;1.00;;;;;;5021078;28;20204;-58
2022/02/22 00:33:28;;;;;;;25.17;3.73;;;6.80;1.00;;;;;;5024290;28;20297;-57
2022/02/22 00:35:56;;;;;;;20.67;3.00;;;6.90;1.00;;;;;;5018781;28;20236;-58
2022/02/22 00:38:23;;;;;;;21.03;3.17;;;6.90;1.00;;;;;;5019258;28;20689;-58
2022/02/22 00:40:50;;;;;;;23.80;4.37;;;6.90;1.00;;;;;;5021580;28;20649;-58
2022/02/22 00:43:18;;;;;;;20.30;3.87;;;6.90;1.00;;;;;;5019155;28;20210;-59
2022/02/22 00:45:44;;;;;;;25.20;3.30;;;6.80;1.00;;;;;;5021982;28;20222;-58
2022/02/22 00:48:11;;;;;;;21.53;4.37;;;6.80;1.00;;;;;;5020743;28;20375;-58
2022/02/22 00:50:38;;;;;;;19.23;3.10;;;6.90;1.00;;;;;;5019580;28;20275;-58
2022/02/22 00:53:05;;;;;;;18.47;3.07;;;6.90;1.00;;;;;;5015860;28;20733;-57
2022/02/22 00:55:32;;;;;;;18.67;3.33;;;6.90;1.00;;;;;;5019237;28;20239;-58
2022/02/22 00:57:59;;;;;;;22.80;3.90;;;7.00;1.00;;;;;;5021959;28;20202;-58
2022/02/22 01:00:26;;;;;;;17.07;3.53;;;6.90;1.00;;;;;;5019724;28;20249;-59
2022/02/22 01:02:54;;;;;;;23.63;3.67;;;6.90;1.00;;;;;;5019454;28;20297;-56
2022/02/22 01:05:21;;;;;;;19.77;3.63;;;6.80;1.00;;;;;;5021462;28;20234;-59
2022/02/22 01:07:49;;;;;;;16.47;3.67;;;6.80;1.00;;;;;;5021002;28;20205;-57
2022/02/22 01:10:16;;;;;;;19.17;3.57;;;6.70;1.00;;;;;;5018972;28;20664;-58
2022/02/22 01:12:43;;;;;;;22.10;3.10;;;6.70;1.00;;;;;;5019991;28;20216;-58
2022/02/22 01:15:10;;;;;;;18.77;3.63;;;6.70;1.00;;;;;;5017068;28;20212;-59
2022/02/22 01:17:37;;;;;;;24.70;3.97;;;6.80;1.00;;;;;;5018148;28;20257;-58
2022/02/22 01:20:07;;;;;;;16.17;3.13;;;6.70;1.00;;;;;;5018938;28;20235;-58
2022/02/22 01:22:35;;;;;;;20.67;3.70;;;6.70;1.00;;;;;;5019363;28;20650;-58
2022/02/22 01:25:06;;;;;;;14.60;3.17;;;6.60;1.00;;;;;;5013766;28;20745;-57
2022/02/22 01:27:34;;;;;;;16.10;3.50;;;6.80;1.00;;;;;;5016460;28;20213;-56
2022/02/22 01:30:07;;;;;;;19.53;2.97;;;6.80;1.00;;;;;;5017123;28;20295;-57
2022/02/22 01:32:34;;;;;;;16.60;3.47;;;6.80;1.00;;;;;;5019975;28;20233;-59
2022/02/22 01:35:07;;;;;;;22.07;3.37;;;6.60;1.00;;;;;;5019549;28;20221;-58
2022/02/22 01:37:34;;;;;;;13.97;3.50;;;6.60;1.00;;;;;;5019162;28;20672;-58
2022/02/22 01:40:01;;;;;;;14.37;3.63;;;6.70;1.00;;;;;;5017066;28;20203;-58
2022/02/22 01:42:28;;;;;;;18.27;3.00;;;6.80;1.00;;;;;;5020892;28;20204;-57
2022/02/22 01:44:55;;;;;;;21.17;3.27;;;6.80;1.00;;;;;;5012894;28;20235;-58
2022/02/22 01:47:22;;;;;;;15.37;2.57;;;6.70;1.00;;;;;;5024820;28;20261;-58
2022/02/22 01:49:49;;;;;;;17.03;3.60;;;6.70;1.00;;;;;;5025549;28;20669;-57
2022/02/22 01:52:16;;;;;;;17.17;2.87;;;6.60;1.00;;;;;;5020545;28;20306;-56
2022/02/22 01:54:44;;;;;;;20.40;2.80;;;6.60;1.00;;;;;;5017426;28;20243;-58
2022/02/22 01:57:11;;;;;;;18.07;3.40;;;6.50;1.00;;;;;;5022125;28;20299;-62
2022/02/22 01:59:40;;;;;;;21.07;3.53;;;6.60;1.00;;;;;;5015574;28;20249;-58
2022/02/22 02:02:07;;;;;;;23.70;4.00;;;6.50;1.00;;;;;;5020149;28;20194;-58
2022/02/22 02:04:33;;;;;;;19.20;3.80;;;6.60;1.00;;;;;;5019299;28;20216;-58
2022/02/22 02:07:15;;;;;;;16.30;2.87;;;6.60;1.00;;;;;;5021060;28;20210;-58
2022/02/22 02:09:42;;;;;;;21.03;3.20;;;6.60;1.00;;;;;;5019896;28;20663;-59
2022/02/22 02:12:09;;;;;;;24.33;3.73;;;6.50;1.00;;;;;;5023686;28;20570;-57
2022/02/22 02:14:36;;;;;;;22.33;4.17;;;6.50;29.10;;;;;;5020962;28;20260;-58
2022/02/22 02:17:03;;;;;;;16.83;3.47;;;6.50;21.60;;;;;;5016462;28;20237;-58
2022/02/22 02:19:30;;;;;;;12.80;3.13;;;6.60;16.10;;;;;;5015061;28;20699;-59
2022/02/22 02:21:58;;;;;;;16.07;3.87;;;6.50;28.30;;;;;;5019832;28;20241;-57
2022/02/22 02:24:27;;;;;;;17.93;3.73;;;6.40;56.00;;;;;;5016302;28;20614;-60
2022/02/22 02:26:55;;;;;;;20.00;3.20;;;6.30;90.00;;;;;;5016098;28;20220;-54
2022/02/22 02:29:25;;;;;;;18.60;2.87;;;6.10;97.90;;;;;;5018994;28;20527;-54
2022/02/22 02:31:52;;;;;;;12.67;2.70;;;6.20;99.90;;;;;;5016836;28;20210;-56
2022/02/22 02:34:26;;;;;;;11.53;3.20;;;6.20;99.90;;;;;;5020857;28;20216;-58
2022/02/22 02:36:54;;;;;;;19.73;3.17;;;6.10;99.90;;;;;;5020225;28;20197;-55
2022/02/22 02:39:21;;;;;;;22.63;3.53;;;6.20;99.90;;;;;;5017616;28;20213;-58
2022/02/22 02:41:49;;;;;;;22.20;3.33;;;6.00;99.90;;;;;;5018943;28;20251;-57
2022/02/22 02:44:19;;;;;;;17.87;3.30;;;6.10;99.90;;;;;;5020437;28;20286;-58
2022/02/22 02:46:46;;;;;;;12.37;2.90;;;5.90;99.90;;;;;;5021291;28;20669;-58
2022/02/22 02:49:15;;;;;;;20.60;3.33;;;5.80;99.90;;;;;;5022215;28;20216;-59
2022/02/22 02:51:42;;;;;;;13.03;3.10;;;5.80;99.90;;;;;;5015291;28;20228;-58
2022/02/22 02:54:11;;;;;;;14.03;2.70;;;5.70;99.90;;;;;;5022722;28;20228;-56
2022/02/22 02:56:38;;;;;;;12.27;3.43;;;5.60;99.90;;;;;;5022452;28;20251;-58
2022/02/22 02:59:07;;;;;;;12.77;2.90;;;5.60;99.90;;;;;;5024136;28;20207;-59
2022/02/22 03:01:36;;;;;;;17.23;3.77;;;5.40;99.90;;;;;;5022060;28;20212;-57
2022/02/22 03:04:04;;;;;;;19.20;3.60;;;5.50;99.90;;;;;;5020848;28;20192;-59
2022/02/22 03:06:31;;;;;;;22.37;3.30;;;5.50;99.90;;;;;;5023646;28;20200;-58
2022/02/22 03:08:58;;;;;;;19.10;3.30;;;5.30;99.90;;;;;;5028060;28;20775;-56
2022/02/22 03:11:25;;;;;;;13.70;2.67;;;5.40;99.90;;;;;;5021245;28;20207;-58
2022/02/22 03:13:52;;;;;;;17.33;3.77;;;5.50;99.90;;;;;;5027027;28;20277;-57
2022/02/22 03:16:19;;;;;;;19.90;3.63;;;5.30;99.90;;;;;;5024707;28;20271;-58
2022/02/22 03:18:46;;;;;;;19.50;3.60;;;5.20;99.90;;;;;;5021269;28;20448;-57
2022/02/22 03:21:13;;;;;;;25.37;3.67;;;5.20;99.90;;;;;;5021429;28;20294;-58
2022/02/22 03:23:40;;;;;;;19.67;3.23;;;5.40;99.90;;;;;;5021476;28;20223;-58
2022/02/22 03:26:08;;;;;;;13.87;2.77;;;5.50;99.90;;;;;;5023117;28;20236;-57
2022/02/22 03:28:36;;;;;;;11.50;2.37;;;5.40;99.90;;;;;;5027041;28;20208;-56
2022/02/22 03:31:03;;;;;;;17.57;3.13;;;5.30;99.90;;;;;;5024295;28;20586;-58
2022/02/22 03:33:31;;;;;;;14.47;2.70;;;5.30;99.90;;;;;;5020650;28;20213;-59
2022/02/22 03:35:59;;;;;;;23.17;3.00;;;5.20;99.90;;;;;;5021736;28;20204;-59
2022/02/22 03:38:26;;;;;;;23.33;3.47;;;5.10;99.90;;;;;;5021859;28;20323;-58
2022/02/22 03:40:53;;;;;;;17.37;4.37;;;5.00;99.90;;;;;;5019660;28;20285;-58
2022/02/22 03:43:20;;;;;;;16.23;3.67;;;5.00;99.90;;;;;;5024899;28;20262;-58
2022/02/22 03:45:47;;;;;;;17.67;3.13;;;5.00;99.90;;;;;;5024831;28;20216;-58
2022/02/22 03:48:14;;;;;;;21.73;3.00;;;4.90;99.90;;;;;;5022579;28;20243;-57
2022/02/22 03:50:41;;;;;;;15.60;3.40;;;5.10;99.90;;;;;;5021140;28;20719;-57
2022/02/22 03:53:07;;;;;;;15.60;2.47;;;5.30;99.90;;;;;;5024123;28;20292;-55
2022/02/22 03:55:35;;;;;;;22.57;3.40;;;5.30;99.90;;;;;;5019525;28;21557;-59
2022/02/22 03:58:02;;;;;;;18.47;3.50;;;5.20;99.90;;;;;;5020766;28;20202;-58
2022/02/22 04:00:30;;;;;;;11.23;2.30;;;5.10;99.90;;;;;;5020865;28;20760;-58
2022/02/22 04:02:59;;;;;;;14.80;2.97;;;5.00;99.90;;;;;;5022967;28;20286;-59
2022/02/22 04:05:26;;;;;;;18.37;2.97;;;5.00;99.90;;;;;;5019824;28;20205;-56
2022/02/22 04:07:53;;;;;;;19.40;2.83;;;5.10;99.90;;;;;;5017197;28;20289;-58
2022/02/22 04:10:19;;;;;;;17.13;3.47;;;5.20;99.90;;;;;;5016095;28;20319;-58
2022/02/22 04:12:46;;;;;;;17.20;2.73;;;5.20;99.90;;;;;;5026987;28;20212;-59
2022/02/22 04:15:13;;;;;;;20.97;3.00;;;5.20;99.90;;;;;;5021279;28;20792;-56
2022/02/22 04:17:40;;;;;;;12.00;2.70;;;5.20;99.90;;;;;;5020322;28;20196;-58
2022/02/22 04:20:10;;;;;;;14.60;2.80;;;5.40;99.90;;;;;;5020767;28;20688;-58
2022/02/22 04:22:38;;;;;;;18.97;3.17;;;5.30;99.90;;;;;;5024573;28;20210;-58
2022/02/22 04:25:06;;;;;;;14.10;3.10;;;5.20;99.90;;;;;;5019307;28;20331;-57
2022/02/22 04:27:34;;;;;;;17.57;2.87;;;5.10;99.90;;;;;;5012118;28;20319;-60
2022/02/22 04:30:01;;;;;;;19.67;2.83;;;5.00;99.90;;;;;;5018206;28;20239;-58
2022/02/22 04:32:28;;;;;;;9.80;2.20;;;5.10;99.90;;;;;;5021159;28;20349;-55
2022/02/22 04:34:55;;;;;;;10.23;2.43;;;5.10;99.90;;;;;;5022615;28;20295;-59
2022/02/22 04:37:21;;;;;;;17.50;3.03;;;5.10;99.90;;;;;;5022571;28;20196;-58
2022/02/22 04:39:54;;;;;;;13.77;2.20;;;5.00;99.90;;;;;;5019701;28;20353;-57
2022/02/22 04:42:22;;;;;;;14.77;2.57;;;5.10;99.90;;;;;;5019293;28;20636;-59
2022/02/22 04:44:49;;;;;;;18.60;2.60;;;5.10;99.90;;;;;;5021047;28;20672;-59
2022/02/22 04:47:16;;;;;;;14.63;3.23;;;5.10;99.90;;;;;;5021629;28;20270;-58
2022/02/22 04:49:43;;;;;;;19.60;2.80;;;5.00;99.90;;;;;;5021944;28;20426;-55
2022/02/22 04:52:10;;;;;;;16.20;2.93;;;5.00;99.90;;;;;;5021097;28;20210;-57
2022/02/22 04:54:38;;;;;;;11.03;2.30;;;5.00;99.90;;;;;;5020954;28;20591;-57
2022/02/22 04:57:06;;;;;;;15.03;3.17;;;5.00;99.90;;;;;;5020887;28;20568;-58
2022/02/22 04:59:33;;;;;;;16.03;2.50;;;5.00;99.90;;;;;;5033320;28;20239;-56
2022/02/22 05:02:00;;;;;;;11.37;2.33;;;5.10;99.90;;;;;;5017539;28;20728;-57
2022/02/22 05:04:27;;;;;;;12.27;2.67;;;5.30;99.90;;;;;;5021379;28;20200;-58
2022/02/22 05:06:54;;;;;;;24.10;2.67;;;5.10;99.90;;;;;;5020236;28;20613;-56
2022/02/22 05:09:21;;;;;;;16.57;2.77;;;5.20;99.90;;;;;;5025076;28;20327;-57
2022/02/22 05:11:48;;;;;;;10.93;2.27;;;5.10;99.90;;;;;;5023454;28;20298;-58
2022/02/22 05:14:15;;;;;;;15.27;2.57;;;5.20;99.90;;;;;;5025611;28;20638;-57
2022/02/22 05:16:42;;;;;;;26.10;2.90;;;5.20;99.90;;;;;;5023400;28;20753;-57
2022/02/22 05:19:09;;;;;;;15.07;2.83;;;5.10;99.90;;;;;;5024150;28;20885;-57
2022/02/22 05:21:36;;;;;;;14.20;2.47;;;5.20;99.90;;;;;;5016565;28;20296;-59
2022/02/22 05:24:05;;;;;;;7.60;2.40;;;5.30;99.90;;;;;;5023541;28;20255;-57
2022/02/22 05:26:33;;;;;;;12.60;1.80;;;5.00;99.90;;;;;;5018655;28;20472;-56
2022/02/22 05:28:59;;;;;;;17.20;3.03;;;5.00;99.90;;;;;;5024000;28;20609;-57
2022/02/22 05:31:26;;;;;;;11.23;2.20;;;4.90;99.90;;;;;;5016653;28;20343;-59
2022/02/22 05:33:54;;;;;;;17.23;2.57;;;4.80;99.90;;;;;;5021343;28;20735;-59
2022/02/22 05:36:21;;;;;;;13.50;2.43;;;4.70;99.90;;;;;;5016416;28;20290;-57
2022/02/22 05:38:48;;;;;;;10.47;2.43;;;4.70;99.90;;;;;;5034984;28;20645;-59
2022/02/22 05:41:17;;;;;;;14.30;2.70;;;4.70;99.90;;;;;;5006347;28;21407;-58
2022/02/22 05:43:49;;;;;;;17.43;2.73;;;4.60;99.90;;;;;;5020638;28;20213;-58
2022/02/22 05:46:18;;;;;;;13.07;2.37;;;4.60;99.90;;;;;;5019278;28;20219;-58
2022/02/22 05:48:45;;;;;;;18.87;3.50;;;4.70;99.90;;;;;;5019846;28;20324;-56
2022/02/22 05:51:13;;;;;;;9.73;2.73;;;4.70;99.90;;;;;;5018977;28;20721;-59
2022/02/22 05:53:40;;;;;;;13.03;2.37;;;4.60;99.90;;;;;;5021504;28;20648;-58
2022/02/22 05:56:07;;;;;;;11.43;2.00;;;4.70;99.90;;;;;;5021764;28;20711;-57
2022/02/22 05:58:35;;;;;;;17.20;2.50;;;4.70;99.90;;;;;;5019933;28;20536;-56
2022/02/22 06:01:01;;;;;;;13.43;2.43;;;4.60;99.90;;;;;;5017856;28;20953;-56
2022/02/22 06:03:28;;;;;;;10.53;2.60;;;4.60;99.90;;;;;;5016436;28;20205;-59
2022/02/22 06:05:55;;;;;;;14.27;2.83;;;4.60;99.90;;;;;;5016737;28;20223;-58
2022/02/22 06:08:22;;;;;;;15.23;2.60;;;4.60;99.90;;;;;;5020369;28;20239;-58
2022/02/22 06:10:49;;;;;;;16.80;2.90;;;4.60;99.90;;;;;;5020604;28;20256;-59
2022/02/22 06:13:18;;;;;;;10.40;2.83;;;4.70;99.90;;;;;;5022897;28;20207;-57
2022/02/22 06:15:45;;;;;;;12.50;2.57;;;4.70;99.90;;;;;;5019553;28;20307;-60
2022/02/22 06:18:12;;;;;;;16.33;3.43;;;4.50;99.90;;;;;;5017991;28;20673;-57
2022/02/22 06:20:42;;;;;;;16.03;2.70;;;4.50;99.90;;;;;;5015412;28;20197;-57
2022/02/22 06:23:09;;;;;;;13.73;2.60;;;4.50;99.90;;;;;;5019458;28;20291;-60
2022/02/22 06:25:36;;;;;;;11.20;2.30;;;4.50;99.90;;;;;;5018372;28;20567;-60
2022/02/22 06:28:03;;;;;;;13.77;3.00;;;4.60;99.90;;;;;;5018317;28;21099;-58
2022/02/22 06:30:34;;;;;;;10.10;1.97;;;4.60;99.90;;;;;;5019030;28;20241;-58
2022/02/22 06:33:01;;;;;;;9.87;2.30;;;4.50;99.90;;;;;;5026476;28;20623;-61
2022/02/22 06:35:28;;;;;;;16.97;3.17;;;4.60;99.90;;;;;;5024471;28;20219;-59
2022/02/22 06:37:55;;;;;;;9.27;2.23;;;4.50;99.90;;;;;;5022773;28;20224;-57
2022/02/22 06:40:25;;;;;;;13.43;2.40;;;4.60;99.90;;;;;;5019288;28;20926;-58
2022/02/22 06:42:52;;;;;;;17.97;2.80;;;4.60;99.90;;;;;;5019886;28;20409;-57
2022/02/22 06:45:19;;;;;;;11.23;2.20;;;4.60;99.90;;;;;;5014301;28;20343;-57
2022/02/22 06:47:46;;;;;;;12.23;2.10;;;4.70;99.90;;;;;;5022625;28;20591;-56
2022/02/22 06:50:13;;;;;;;11.03;2.47;;;4.70;99.90;;;;;;5020288;28;20500;-58
2022/02/22 06:52:41;;;;;;;19.10;2.50;;;4.70;99.90;;;;;;5024252;28;20204;-59
2022/02/22 06:55:09;;;;;;;13.57;2.30;;;4.60;99.90;;;;;;5024908;28;20240;-59
2022/02/22 06:57:36;;;;;;;10.47;2.60;;;4.70;99.90;;;;;;5026778;28;20223;-58
2022/02/22 07:00:07;;;;;;;9.00;2.30;;;4.60;99.90;;;;;;5022041;28;20201;-59
2022/02/22 07:02:34;;;;;;;10.13;2.50;;;4.60;99.90;;;;;;5025456;28;20200;-56
2022/02/22 07:05:01;;;;;;;16.97;2.60;;;4.70;99.90;;;;;;5022471;28;20550;-58
2022/02/22 07:07:28;;;;;;;11.43;3.17;;;4.60;99.90;;;;;;5019606;28;20228;-58
2022/02/22 07:09:55;;;;;;;14.17;3.60;;;4.60;99.90;;;;;;5022820;28;20605;-58
2022/02/22 07:12:22;;;;;;;9.37;2.53;;;4.60;99.90;;;;;;5019720;28;20541;-59
2022/02/22 07:14:49;;;;;;;11.40;2.67;;;4.70;99.90;;;;;;5026293;28;20243;-59
2022/02/22 07:17:16;;;;;;;7.57;2.73;;;4.70;99.90;;;;;;5020691;28;21598;-58
2022/02/22 07:19:43;;;;;;;11.40;2.73;;;4.70;99.90;;;;;;5017914;28;21451;-58
2022/02/22 07:22:10;;;;;;;11.47;3.30;;;4.80;99.90;;;;;;5023144;28;20279;-59
2022/02/22 07:24:37;;;;;;;13.27;3.00;;;4.90;99.90;;;;;;5006793;28;20597;-57
2022/02/22 07:27:03;;;;;;;12.73;3.37;;;4.90;99.90;;;;;;5022579;28;20216;-58
2022/02/22 07:29:30;;;;;;;14.70;3.50;;;5.00;99.90;;;;;;5029060;28;20222;-58
2022/02/22 07:31:57;;;;;;;18.17;3.70;;;5.10;99.90;;;;;;5029457;28;20208;-58
2022/02/22 07:34:24;;;;;;;17.33;3.60;;;5.10;99.90;;;;;;5031655;28;20208;-57
2022/02/22 07:36:51;;;;;;;10.50;2.97;;;5.10;99.90;;;;;;5026114;28;20219;-58
2022/02/22 07:39:18;;;;;;;11.77;3.33;;;5.20;99.90;;;;;;5026964;28;20212;-58
2022/02/22 07:41:45;;;;;;;13.57;2.97;;;5.20;99.90;;;;;;5026663;28;20263;-58
2022/02/22 07:44:11;;;;;;;9.20;3.43;;;5.20;99.90;;;;;;5028511;28;20236;-59
2022/02/22 07:46:38;;;;;;;12.73;3.83;;;5.20;99.90;;;;;;5033157;28;20200;-59
2022/02/22 07:49:06;;;;;;;17.47;4.17;;;5.30;99.90;;;;;;5030633;28;20293;-59
2022/02/22 07:51:33;;;;;;;14.20;3.63;;;5.30;99.90;;;;;;5027211;28;20334;-58
2022/02/22 07:54:00;;;;;;;11.70;3.50;;;5.30;99.90;;;;;;5027418;28;20350;-60
2022/02/22 07:56:27;;;;;;;11.17;3.97;;;5.40;99.90;;;;;;5031165;28;20670;-59
2022/02/22 07:58:53;;;;;;;18.63;4.13;;;5.50;99.90;;;;;;5023107;28;20201;-59
2022/02/22 08:01:20;;;;;;;13.53;4.30;;;5.50;99.90;;;;;;5024495;28;20193;-58
2022/02/22 08:03:47;;;;;;;13.93;4.03;;;5.50;99.90;;;;;;5021959;28;20296;-56
2022/02/22 08:06:14;;;;;;;13.20;3.80;;;5.60;99.90;;;;;;5020571;28;20209;-59
2022/02/22 08:08:42;;;;;;;18.17;5.20;;;5.60;99.90;;;;;;5021726;28;20983;-58
2022/02/22 08:11:09;;;;;;;22.83;3.83;;;5.70;99.90;;;;;;5018625;28;20644;-58
2022/02/22 08:13:36;;;;;;;14.50;3.87;;;5.70;99.90;;;;;;5019688;28;20208;-57
2022/02/22 08:16:03;;;;;;;11.67;4.07;;;5.80;99.90;;;;;;5018823;28;20224;-57
2022/02/22 08:18:30;;;;;;;18.30;4.50;;;5.80;99.90;;;;;;5021049;28;20209;-57
2022/02/22 08:20:57;;;;;;;13.90;4.07;;;5.90;99.90;;;;;;5017573;28;20653;-57
2022/02/22 08:23:27;;;;;;;19.37;3.97;;;6.00;99.90;;;;;;5023575;28;20212;-56
2022/02/22 08:25:53;;;;;;;16.40;4.33;;;6.00;99.90;;;;;;5021213;28;20674;-60
2022/02/22 08:28:20;;;;;;;15.23;3.53;;;6.00;99.90;;;;;;5026236;28;20215;-59
2022/02/22 08:30:47;;;;;;;17.13;4.37;;;6.10;99.90;;;;;;5021971;28;20208;-59
2022/02/22 08:33:14;;;;;;;9.10;3.77;;;6.20;99.90;;;;;;5024254;28;20205;-57
2022/02/22 08:35:42;;;;;;;20.77;5.30;;;6.20;99.90;;;;;;5017688;28;20632;-56
2022/02/22 08:38:09;;;;;;;12.53;3.80;;;6.30;99.90;;;;;;5024204;28;20680;-59
2022/02/22 08:40:36;;;;;;;18.37;4.57;;;6.40;99.90;;;;;;5017163;28;20441;-58
2022/02/22 08:43:03;;;;;;;25.07;4.77;;;6.50;99.90;;;;;;5029803;28;20299;-61
2022/02/22 08:45:31;;;;;;;16.50;4.67;;;6.50;99.90;;;;;;5018082;28;20289;-60
2022/02/22 08:48:01;;;;;;;19.30;4.13;;;6.50;99.90;;;;;;5015449;28;20208;-61
2022/02/22 08:50:28;;;;;;;19.53;4.27;;;6.50;99.90;;;;;;5023891;28;20201;-63
2022/02/22 08:52:55;;;;;;;15.13;4.03;;;6.60;99.90;;;;;;5026605;28;20700;-62
2022/02/22 08:55:23;;;;;;;12.20;3.73;;;6.60;99.90;;;;;;5018955;28;20327;-64
2022/02/22 08:57:50;;;;;;;17.47;3.90;;;6.70;99.90;;;;;;5023524;28;20263;-64
2022/02/22 09:00:18;;;;;;;16.43;4.77;;;6.70;99.90;;;;;;5021076;28;20653;-64
2022/02/22 09:02:45;;;;;;;17.40;3.97;;;6.70;99.90;;;;;;5006897;28;20273;-63
2022/02/22 09:05:12;;;;;;;16.73;3.50;;;6.70;55.30;;;;;;5025733;28;20362;-64
2022/02/22 09:07:39;;;;;;;19.67;4.67;;;6.80;11.40;;;;;;5013058;28;20546;-64
2022/02/22 09:10:07;;;;;;;14.27;3.60;;;6.80;16.70;;;;;;5024134;28;20229;-63
2022/02/22 09:12:34;;;;;;;22.13;4.57;;;6.90;11.40;;;;;;5008087;28;20594;-63
2022/02/22 09:15:02;;;;;;;17.90;3.77;;;6.90;1.00;;;;;;5027799;28;20219;-63
2022/02/22 09:17:29;;;;;;;12.70;3.33;;;6.90;1.00;;;;;;5021744;28;20239;-64
2022/02/22 09:19:58;;;;;;;11.53;3.23;;;7.00;1.00;;;;;;5023854;28;20602;-63
2022/02/22 09:22:25;;;;;;;14.20;3.57;;;7.00;1.00;;;;;;5021706;28;20219;-64
2022/02/22 09:24:52;;;;;;;14.67;3.33;;;7.10;1.00;;;;;;5026921;28;20204;-64
2022/02/22 09:27:19;;;;;;;13.53;3.80;;;7.10;1.00;;;;;;5024925;28;20884;-63
2022/02/22 09:29:46;;;;;;;14.53;3.33;;;7.20;1.00;;;;;;5015665;28;20680;-64
2022/02/22 09:32:14;;;;;;;15.57;3.50;;;7.20;1.00;;;;;;5012256;28;20568;-64
2022/02/22 09:34:41;;;;;;;13.53;3.43;;;7.30;1.00;;;;;;5021436;28;20200;-64
2022/02/22 09:37:10;;;;;;;14.93;3.70;;;7.30;1.00;;;;;;5021071;28;20216;-64
2022/02/22 09:39:38;;;;;;;13.63;3.27;;;7.40;99.90;;;;;;5013628;28;20197;-64
2022/02/22 09:42:07;;;;;;;17.57;4.07;;;7.40;99.90;;;;;;5023555;28;21592;-68
2022/02/22 09:44:39;;;;;;;15.33;3.10;;;7.40;99.90;;;;;;5026918;28;20315;-65
2022/02/22 09:47:08;;;;;;;12.00;3.00;;;7.30;99.90;;;;;;5019793;28;20382;-65
2022/02/22 09:49:36;;;;;;;15.27;2.93;;;7.30;99.90;;;;;;5016816;28;20216;-64
2022/02/22 09:52:04;;;;;;;19.00;4.20;;;7.40;99.90;;;;;;5018997;28;20267;-65
2022/02/22 09:54:33;;;;;;;16.70;3.90;;;7.40;99.90;;;;;;5019010;28;20686;-64
2022/02/22 09:57:00;;;;;;;14.40;3.30;;;7.30;45.90;;;;;;5017567;28;20252;-65
2022/02/22 09:59:27;;;;;;;15.00;3.10;;;7.40;99.90;;;;;;5018273;28;20204;-65
2022/02/22 10:01:55;;;;;;;15.20;3.33;;;7.40;99.90;;;;;;5023059;28;20277;-65
2022/02/22 10:04:24;;;;;;;11.73;4.37;;;7.50;99.90;;;;;;5022112;28;20676;-64
2022/02/22 10:06:59;;;;;;;17.87;3.63;;;7.40;80.10;;;;;;5024900;28;20201;-65
2022/02/22 10:09:26;;;;;;;17.80;3.87;;;7.40;99.90;;;;;;5025423;28;20807;-64
2022/02/22 10:11:54;;;;;;;16.37;3.70;;;7.40;99.90;;;;;;5026952;28;20241;-64
2022/02/22 10:14:26;;;;;;;15.00;3.13;;;7.40;99.90;;;;;;5023470;28;20211;-64
2022/02/22 10:16:55;;;;;;;16.93;3.40;;;7.40;99.90;;;;;;5027280;28;20708;-65
2022/02/22 10:19:28;;;;;;;12.30;3.43;;;7.40;99.90;;;;;;5020535;28;20604;-64
2022/02/22 10:21:57;;;;;;;16.43;4.57;;;7.40;99.90;;;;;;5021671;28;20212;-64
2022/02/22 10:24:28;;;;;;;17.27;3.97;;;7.40;99.90;;;;;;5030633;28;20205;-64
2022/02/22 10:27:06;;;;;;;13.20;4.13;;;7.50;99.90;;;;;;5017396;28;20638;-64
2022/02/22 10:29:35;;;;;;;13.73;4.13;;;7.50;99.90;;;;;;5023310;28;20303;-64
2022/02/22 10:32:14;;;;;;;10.97;3.33;;;7.50;1.00;;;;;;5027263;28;20216;-63
2022/02/22 10:34:41;;;;;;;23.77;4.67;;;7.60;99.90;;;;;;5020546;28;20416;-63
2022/02/22 10:37:08;;;;;;;16.07;3.93;;;7.60;1.00;;;;;;5026894;28;20299;-64
2022/02/22 10:39:36;;;;;;;15.07;3.60;;;7.70;1.00;;;;;;5023600;28;20774;-65
2022/02/22 10:42:04;;;;;;;14.67;3.30;;;7.70;1.00;;;;;;5025176;28;20749;-65
2022/02/22 10:44:36;;;;;;;22.43;4.07;;;7.70;1.00;;;;;;5023329;28;20678;-65
2022/02/22 10:47:24;;;;;;;10.90;3.53;;;7.80;1.00;;;;;;5028743;28;20197;-63
2022/02/22 10:49:51;;;;;;;23.17;5.17;;;7.90;1.00;;;;;;5022756;28;20301;-65
2022/02/22 10:52:29;;;;;;;24.17;4.93;;;7.90;1.00;;;;;;5022866;28;20255;-64
2022/02/22 10:55:01;;;;;;;20.50;4.47;;;8.00;1.00;;;;;;5010920;28;20237;-65
2022/02/22 10:57:31;;;;;;;19.37;4.63;;;7.90;1.00;;;;;;5026204;28;20619;-65
2022/02/22 10:59:58;;;;;;;18.30;4.10;;;7.90;1.00;;;;;;5019774;28;20691;-65
2022/02/22 11:02:26;;;;;;;18.37;5.07;;;7.90;64.20;;;;;;5025230;28;20201;-65
2022/02/22 11:04:55;;;;;;;23.37;5.00;;;7.90;99.90;;;;;;4992985;28;20213;-64
2022/02/22 11:07:26;;;;;;;24.80;4.40;;;7.80;99.90;;;;;;5024184;28;20228;-65
2022/02/22 11:09:56;;;;;;;26.33;4.77;;;7.80;99.90;;;;;;5018565;28;20720;-64
2022/02/22 11:12:27;;;;;;;25.53;5.47;;;7.70;99.90;;;;;;5023951;28;20227;-65
2022/02/22 11:15:09;;;;;;;22.00;4.63;;;7.70;99.90;;;;;;5022698;28;20206;-66
2022/02/22 11:18:02;;;;;;;20.47;4.67;;;7.60;99.90;;;;;;5022782;28;20216;-65
2022/02/22 11:20:32;;;;;;;20.90;4.67;;;7.70;99.90;;;;;;5027786;28;21277;-66
2022/02/22 11:23:09;;;;;;;19.50;4.80;;;7.60;99.90;;;;;;5021843;28;20201;-63
2022/02/22 11:25:37;;;;;;;21.93;4.77;;;7.60;99.90;;;;;;5028921;28;20307;-63
2022/02/22 11:28:09;;;;;;;26.70;5.43;;;7.70;99.90;;;;;;5010631;28;20663;-64
2022/02/22 11:30:38;;;;;;;20.80;4.77;;;7.70;99.90;;;;;;5024770;28;20208;-65
2022/02/22 11:33:13;;;;;;;26.60;5.87;;;7.70;99.90;;;;;;5024781;28;20205;-64
2022/02/22 11:35:49;;;;;;;24.43;5.60;;;7.70;99.90;;;;;;5023636;28;20225;-64
2022/02/22 11:38:17;;;;;;;26.97;5.17;;;7.80;99.90;;;;;;5023579;28;20224;-64
2022/02/22 11:40:48;;;;;;;17.37;6.40;;;7.80;99.90;;;;;;5021489;28;20261;-63
2022/02/22 11:43:18;;;;;;;18.23;5.50;;;7.70;99.90;;;;;;5040378;28;20262;-63
2022/02/22 11:45:48;;;;;;;22.13;5.40;;;7.90;99.90;;;;;;5023545;28;20640;-64
2022/02/22 11:48:23;;;;;;;14.90;5.40;;;7.80;99.90;;;;;;5021123;28;20304;-62
2022/02/22 11:50:52;;;;;;;17.23;6.23;;;7.80;99.90;;;;;;5019025;28;20212;-63
2022/02/22 11:53:27;;;;;;;19.80;6.07;;;7.80;99.90;;;;;;5008698;28;21494;-60
2022/02/22 11:55:57;;;;;;;21.87;6.23;;;7.80;99.90;;;;;;5016235;28;20720;-61
2022/02/22 11:58:26;;;;;;;29.57;6.60;;;7.90;99.90;;;;;;5023391;28;20751;-60
2022/02/22 12:00:57;;;;;;;19.50;6.50;;;7.90;99.90;;;;;;5037022;28;20228;-61
2022/02/22 12:03:24;;;;;;;15.53;5.87;;;8.00;99.90;;;;;;5019164;28;20292;-60
2022/02/22 12:05:59;;;;;;;19.53;6.17;;;8.10;99.90;;;;;;5021791;28;20660;-63
2022/02/22 12:08:40;;;;;;;21.57;5.80;;;8.10;99.90;;;;;;5023776;28;20216;-66
2022/02/22 12:11:15;;;;;;;21.10;6.20;;;8.20;99.90;;;;;;5029598;28;20206;-65
2022/02/22 12:13:46;;;;;;;28.50;7.07;;;8.20;99.90;;;;;;5024809;28;20213;-65
2022/02/22 12:16:15;;;;;;;24.97;6.67;;;8.30;99.90;;;;;;5011125;28;20206;-65
2022/02/22 12:18:46;;;;;;;13.37;5.97;;;8.40;99.90;;;;;;5025940;28;20219;-65
2022/02/22 12:21:13;;;;;;;22.30;6.03;;;8.40;99.90;;;;;;5015357;28;20243;-56
2022/02/22 12:23:41;;;;;;;22.63;6.10;;;8.40;99.90;;;;;;5026765;28;20365;-56
2022/02/22 12:26:11;;;;;;;24.83;7.63;;;8.50;99.90;;;;;;5011310;28;20287;-58
2022/02/22 12:28:54;;;;;;;20.33;7.00;;;8.60;99.90;;;;;;5024260;28;20236;-58
2022/02/22 12:31:32;;;;;;;19.80;7.00;;;8.70;99.90;;;;;;5018604;28;20299;-59
2022/02/22 12:34:02;;;;;;;12.53;6.20;;;8.70;99.90;;;;;;5017419;28;20201;-59
2022/02/22 12:36:30;;;;;;;30.43;7.93;;;8.80;99.90;;;;;;5023764;28;20528;-58
2022/02/22 12:39:03;;;;;;;22.80;6.63;;;8.80;99.90;;;;;;5007296;28;20217;-58
2022/02/22 12:41:38;;;;;;;24.07;6.13;;;8.90;99.90;;;;;;5018932;28;20703;-59
2022/02/22 12:44:13;;;;;;;19.37;6.53;;;8.90;99.90;;;;;;5024210;28;20218;-57
2022/02/22 12:46:42;;;;;;;17.20;5.93;;;9.00;99.90;;;;;;5018084;28;20212;-59
2022/02/22 12:49:14;;;;;;;22.13;7.30;;;9.00;99.90;;;;;;5022016;28;20209;-59
2022/02/22 12:51:42;;;;;;;18.97;6.80;;;9.00;99.90;;;;;;5020992;28;20204;-60
2022/02/22 12:54:14;;;;;;;23.03;6.37;;;9.10;99.90;;;;;;5019865;28;20514;-60
2022/02/22 12:56:48;;;;;;;26.83;7.27;;;9.10;99.90;;;;;;5021545;28;20296;-58